Pagrindinis puslapis
METAR-TAF:

METAR-TAF

Oro uostai :

Chugiak, Aliaska, Jungtinės Amerikos Valstijos

platuma: 61-25N, ilguma: 149-31W, Aukštis: 29 m

Dabartinis oras

Ataskaita buvo paskelbta 1 valandą ir 0 minutes, ne 02:56 UTC
Vėjas 4 kt iš Šiaurės Rytų
Temperatūra -4°C
Drėgmė 86%
Slėgis 1011 hPa
Matomumas: 16.1 km
Apsiniaukę ne aukštis 1100 ft

METAR: PABV 300256Z AUTO 04004KT 10SM OVC011 M04/M06 A2986 RMK AO2 SLP120 T10441056 56014 FZRANO

Laikas: 19:56 (03:56 UTC)


TAF: trūkstamas

Orai ataskaitas ir orų prognozės (METAR, TAF).

turimą stotys yra geltonos ir raudonos taškus žemėlapyje.

Perkelti pele per norėdami pamatyti stoties vardą.

Tada spustelėkite, norėdami matyti oro stebėjimo ir prognozės.

Norėdami pakeisti žemėlapį: spustelėkite ant žalios mygtukų su juodo kryžiaus žemyn,; žalią mygtuką su brūkšneliu, jei norite nutolinti; arba žalių rodyklių gretimoms žemėlapius.


METAR-TAF: